Time;durP1;ratioP1;P1;durP2;ratioP2;P2;SDS_P1;SDS_P2;PMS_P1;PMS_P2;Temp;Humidity;BMP_temperature;BMP_pressure;BME280_temperature;BME280_humidity;BME280_pressure;Samples;Min_cycle;Max_cycle;Signal;HPM_P1;HPM_P2
2022/06/14 00:10:35;;;;;;;10.30;4.80;;;;;;;11.67;77.13;98817.38;433506;1267;99415;-40
2022/06/14 00:20:43;;;;;;;9.60;4.90;;;;;;;11.69;77.12;98822.76;433736;1267;108921;-44
2022/06/14 00:30:52;;;;;;;8.30;4.70;;;;;;;11.63;76.83;98824.81;433605;1267;99244;-41
2022/06/14 00:40:59;;;;;;;;;;;;;;;11.61;76.73;98829.70;433563;1265;112878;-42
2022/06/14 00:51:08;;;;;;;8.30;4.50;;;;;;;11.59;76.63;98833.61;433618;1267;107761;-40
2022/06/14 01:01:17;;;;;;;11.60;5.90;;;;;;;11.44;76.58;98843.16;433729;1267;98857;-40
2022/06/14 01:11:26;;;;;;;8.90;4.50;;;;;;;11.24;76.36;98850.54;433594;1267;107589;-40
2022/06/14 01:21:33;;;;;;;8.20;4.50;;;;;;;11.16;76.52;98855.44;433647;1268;98029;-41
2022/06/14 01:31:41;;;;;;;10.10;4.10;;;;;;;11.22;76.80;98867.58;434428;1258;112765;-42
2022/06/14 01:52:05;;;;;;;8.10;4.70;;;;;;;11.33;76.79;98879.24;433854;1268;99270;-41
2022/06/14 02:02:13;;;;;;;10.30;4.40;;;;;;;11.35;76.79;98876.70;433622;1267;107708;-42
2022/06/14 02:12:24;;;;;;;9.30;3.70;;;;;;;11.42;76.75;98876.96;433647;1268;99337;-43
2022/06/14 02:22:38;;;;;;;10.20;4.50;;;;;;;11.43;76.70;98887.63;433695;1268;112400;-42
2022/06/14 02:32:46;;;;;;;7.00;3.90;;;;;;;11.30;76.71;98894.30;433784;1267;108846;-40
2022/06/14 02:43:00;;;;;;;17.00;4.90;;;;;;;11.07;76.49;98899.48;433694;1268;99250;-42
2022/06/14 02:53:09;;;;;;;7.20;3.00;;;;;;;10.84;76.31;98906.36;433691;1267;108894;-41
2022/06/14 03:03:18;;;;;;;8.40;3.40;;;;;;;10.81;76.29;98914.42;433622;1268;97950;-40
2022/06/14 03:13:54;;;;;;;10.50;3.60;;;;;;;11.14;76.48;98926.64;433879;1267;112816;-42
2022/06/14 03:24:24;;;;;;;5.50;3.30;;;;;;;14.05;75.30;98929.02;433767;1267;109137;-41
2022/06/14 03:34:38;;;;;;;6.80;3.80;;;;;;;16.58;72.77;98933.84;433879;1268;98843;-40
2022/06/14 03:44:46;;;;;;;5.20;2.80;;;;;;;18.28;70.93;98943.36;433893;1268;108749;-40
2022/06/14 03:54:52;;;;;;;7.30;2.70;;;;;;;19.74;68.97;98951.23;433590;1268;99379;-40
2022/06/14 04:05:07;;;;;;;8.60;3.00;;;;;;;20.64;67.04;98965.07;433836;1268;113234;-41
2022/06/14 04:15:15;;;;;;;2.80;2.30;;;;;;;21.42;65.61;98968.02;433581;1268;108867;-41
2022/06/14 04:25:26;;;;;;;;;;;;;;;22.25;63.83;98970.39;433766;1268;98855;-43
2022/06/14 04:35:32;;;;;;;4.30;2.40;;;;;;;22.78;62.21;98973.63;433817;1268;106296;-40
2022/06/14 04:55:44;;;;;;;5.10;2.40;;;;;;;22.50;59.10;98972.77;433806;1268;112327;-40
2022/06/14 05:05:53;;;;;;;12.50;2.80;;;;;;;22.35;58.88;98979.83;433819;1267;107395;-41
2022/06/14 05:16:07;;;;;;;6.10;3.20;;;;;;;22.62;58.29;98984.91;433750;1268;98840;-41
2022/06/14 05:26:18;;;;;;;3.60;2.20;;;;;;;21.82;57.33;98980.64;433878;1268;107784;-43
2022/06/14 05:36:29;;;;;;;3.50;2.40;;;;;;;21.52;57.31;98984.15;433849;1268;99242;-40
2022/06/14 05:46:41;;;;;;;2.90;2.30;;;;;;;20.72;56.25;98995.79;434009;1268;112040;-42
2022/06/14 05:56:46;;;;;;;4.80;1.60;;;;;;;20.85;57.21;98994.60;433906;1268;108774;-43
2022/06/14 06:07:00;;;;;;;5.40;2.10;;;;;;;21.15;56.81;98998.52;433962;1268;98874;-41
2022/06/14 06:17:08;;;;;;;6.00;1.80;;;;;;;21.05;56.17;99000.52;433660;1268;109093;-41
2022/06/14 06:27:16;;;;;;;4.80;1.50;;;;;;;21.13;55.52;99004.77;433975;1268;98846;-42
2022/06/14 06:37:30;;;;;;;3.30;1.20;;;;;;;21.12;55.31;99006.73;433781;1268;112513;-40
2022/06/14 06:47:46;;;;;;;2.10;1.20;;;;;;;21.16;54.48;99007.21;433838;1268;108847;-41
2022/06/14 06:57:57;;;;;;;4.50;2.00;;;;;;;20.96;53.56;99008.71;433769;1268;98018;-41
2022/06/14 07:08:05;;;;;;;5.80;1.20;;;;;;;20.76;52.67;99009.44;433869;1268;108825;-40
2022/06/14 07:18:13;;;;;;;4.00;1.30;;;;;;;20.62;52.64;99011.59;433755;1268;98853;-40
2022/06/14 07:28:28;;;;;;;4.80;1.40;;;;;;;20.53;52.42;99010.18;433756;1268;112393;-39
2022/06/14 07:38:37;;;;;;;6.40;1.40;;;;;;;20.62;52.74;99014.38;433782;1268;108775;-41
2022/06/14 07:48:46;;;;;;;3.20;0.80;;;;;;;20.99;52.69;99013.99;433801;1268;99262;-40
2022/06/14 07:58:59;;;;;;;4.30;1.00;;;;;;;20.81;52.21;99021.70;433917;1268;108270;-40
2022/06/14 08:09:12;;;;;;;5.00;1.10;;;;;;;20.39;51.61;99025.63;433789;1268;99254;-40
2022/06/14 08:19:20;;;;;;;2.00;0.60;;;;;;;20.41;50.58;99021.21;433895;1267;112498;-41
2022/06/14 08:29:34;;;;;;;3.20;0.90;;;;;;;20.52;51.18;99014.85;433984;1268;108506;-41
2022/06/14 08:39:42;;;;;;;5.10;0.80;;;;;;;20.50;50.66;99014.27;433550;1268;99241;-40
2022/06/14 08:49:58;;;;;;;5.20;0.70;;;;;;;20.25;50.28;99021.67;433891;1268;109048;-39
2022/06/14 09:00:12;;;;;;;1.70;0.70;;;;;;;19.94;50.48;99033.35;433734;1268;99333;-41
2022/06/14 09:10:35;;;;;;;1.60;1.00;;;;;;;19.84;50.11;99036.60;433693;1268;112425;-42
2022/06/14 09:20:42;;;;;;;3.30;0.70;;;;;;;19.86;50.68;99028.80;433621;1268;108742;-42
2022/06/14 09:31:11;;;;;;;3.10;0.70;;;;;;;20.27;49.28;99027.75;433291;1267;663660;-40
2022/06/14 09:41:18;;;;;;;2.20;0.60;;;;;;;19.88;48.88;99029.50;433780;1267;109417;-40
2022/06/14 09:51:53;;;;;;;2.40;0.90;;;;;;;19.70;49.43;99026.46;433747;1267;99391;-45
2022/06/14 10:01:58;;;;;;;3.00;1.10;;;;;;;20.05;49.20;99023.45;433936;1267;112436;-42
2022/06/14 10:12:12;;;;;;;3.10;0.90;;;;;;;19.96;48.81;99022.08;433937;1267;108866;-42
2022/06/14 10:22:18;;;;;;;2.50;0.90;;;;;;;19.75;48.66;99028.80;433872;1267;99107;-44
2022/06/14 10:33:00;;;;;;;5.70;1.40;;;;;;;20.41;48.30;99008.99;433901;1268;108647;-41
2022/06/14 10:43:12;;;;;;;5.30;1.30;;;;;;;19.95;47.89;99014.99;434022;1267;98059;-39
2022/06/14 10:53:29;;;;;;;2.70;1.00;;;;;;;19.61;48.50;99014.88;433641;1268;112434;-40
2022/06/14 11:03:42;;;;;;;3.40;1.30;;;;;;;20.02;47.07;99006.84;433878;1266;108213;-42
2022/06/14 11:13:48;;;;;;;4.50;1.00;;;;;;;20.61;47.14;98996.02;433823;1267;99369;-40
2022/06/14 11:23:55;;;;;;;5.50;1.30;;;;;;;20.95;45.48;98987.23;433988;1267;108813;-40
2022/06/14 11:34:17;;;;;;;2.80;0.90;;;;;;;20.17;44.93;98996.11;433779;1267;99290;-44
2022/06/14 11:45:03;;;;;;;2.30;1.20;;;;;;;19.92;45.91;98992.27;433715;1267;113058;-41
2022/06/14 11:55:10;;;;;;;5.00;1.00;;;;;;;20.80;46.45;98979.98;433736;1267;107660;-42
2022/06/14 12:05:18;;;;;;;7.60;1.00;;;;;;;20.79;44.77;98984.98;433681;1267;99241;-41
2022/06/14 12:15:23;;;;;;;5.00;1.10;;;;;;;20.22;45.43;98995.70;433730;1267;108240;-41
2022/06/14 12:36:00;;;;;;;1.60;1.00;;;;;;;20.04;46.50;99007.14;433439;1270;111521;-42
2022/06/14 12:46:09;;;;;;;5.10;1.30;;;;;;;20.42;46.42;98992.56;433546;1267;108809;-43
2022/06/14 12:56:23;;;;;;;5.80;1.30;;;;;;;19.92;45.95;98992.96;433867;1267;99289;-41
2022/06/14 13:07:00;;;;;;;2.40;1.10;;;;;;;19.85;46.60;98987.45;433753;1268;108845;-42
2022/06/14 13:17:08;;;;;;;1.90;1.20;;;;;;;19.88;46.71;98990.05;433696;1267;99260;-42
2022/06/14 13:37:23;;;;;;;3.20;1.20;;;;;;;20.04;45.84;98967.58;433774;1266;107650;-45
2022/06/14 13:47:29;;;;;;;3.60;1.20;;;;;;;19.69;45.88;98967.77;433718;1267;99264;-41
2022/06/14 13:57:37;;;;;;;2.00;1.10;;;;;;;19.70;44.76;98957.96;434089;1267;108957;-43
2022/06/14 14:07:47;;;;;;;13.30;1.10;;;;;;;19.81;43.96;98966.98;433655;1268;99244;-42
2022/06/14 14:17:53;;;;;;;1.40;0.80;;;;;;;19.90;43.84;98972.70;433821;1267;112373;-45
2022/06/14 14:27:59;;;;;;;3.00;1.10;;;;;;;19.83;43.96;98973.78;433816;1267;108818;-42
2022/06/14 14:38:12;;;;;;;1.60;0.70;;;;;;;19.71;43.40;98971.90;433797;1267;99267;-41
2022/06/14 14:58:33;;;;;;;3.10;0.80;;;;;;;19.22;42.79;98972.09;433644;1269;99359;-44
2022/06/14 15:08:41;;;;;;;3.00;0.80;;;;;;;19.49;42.83;98962.45;433549;1267;112530;-40
2022/06/14 15:29:25;;;;;;;3.10;0.90;;;;;;;19.45;42.26;98958.55;433639;1267;99907;-40
2022/06/14 15:39:34;;;;;;;0.90;0.50;;;;;;;19.22;42.26;98971.57;433432;1267;108889;-43
2022/06/14 15:49:46;;;;;;;3.70;1.10;;;;;;;19.09;41.68;98973.90;433719;1268;99541;-42
2022/06/14 15:59:59;;;;;;;4.70;0.80;;;;;;;18.91;41.71;98972.73;433851;1267;112463;-46
2022/06/14 16:10:08;;;;;;;4.20;0.90;;;;;;;18.81;41.55;98960.70;433762;1267;108980;-41
2022/06/14 16:20:18;;;;;;;5.20;1.80;;;;;;;18.78;42.13;98964.84;433781;1267;99253;-42
2022/06/14 16:30:37;;;;;;;4.20;1.40;;;;;;;18.74;42.77;98961.80;433739;1268;108664;-42
2022/06/14 16:40:46;;;;;;;2.40;1.10;;;;;;;18.58;42.90;98970.98;433586;1267;99105;-45
2022/06/14 16:50:57;;;;;;;1.90;1.60;;;;;;;18.37;43.06;98976.40;433583;1267;112496;-44
2022/06/14 17:01:09;;;;;;;6.00;1.40;;;;;;;18.12;43.84;98975.48;433632;1267;106655;-42
2022/06/14 17:11:16;;;;;;;3.80;1.50;;;;;;;17.83;44.40;98978.09;433651;1267;99297;-44
2022/06/14 17:21:36;;;;;;;3.90;1.20;;;;;;;17.72;44.82;98984.60;433553;1267;107993;-42
2022/06/14 17:31:46;;;;;;;5.60;1.40;;;;;;;17.55;45.46;98991.89;433725;1267;99250;-43
2022/06/14 17:41:54;;;;;;;5.40;1.60;;;;;;;17.37;46.12;99001.34;433759;1268;112544;-42
2022/06/14 17:52:07;;;;;;;5.40;2.50;;;;;;;17.09;46.48;99008.21;433467;1267;108777;-42
2022/06/14 18:02:14;;;;;;;4.70;1.20;;;;;;;16.79;47.04;99011.52;433747;1267;99814;-43
2022/06/14 18:12:21;;;;;;;4.60;1.20;;;;;;;16.48;47.79;99017.64;433933;1267;108848;-44
2022/06/14 18:22:34;;;;;;;5.70;2.10;;;;;;;16.18;48.45;99022.09;433739;1267;99297;-42
2022/06/14 18:32:39;;;;;;;4.20;1.70;;;;;;;15.84;48.88;99027.90;433633;1267;112437;-41
2022/06/14 18:43:10;;;;;;;6.20;2.50;;;;;;;15.50;49.44;99038.39;433842;1267;108843;-41
2022/06/14 19:03:41;;;;;;;5.40;2.10;;;;;;;14.90;51.18;99055.34;433527;1268;107664;-42
2022/06/14 19:13:55;;;;;;;5.00;2.40;;;;;;;14.44;52.04;99064.98;433609;1269;99363;-42
2022/06/14 19:24:11;;;;;;;5.70;2.80;;;;;;;14.07;53.04;99069.12;433637;1267;112279;-43
2022/06/14 19:34:17;;;;;;;5.30;2.60;;;;;;;13.76;53.77;99077.90;433551;1267;109495;-44
2022/06/14 19:44:24;;;;;;;11.20;2.80;;;;;;;13.71;54.73;99084.17;433673;1267;98020;-41
2022/06/14 19:54:33;;;;;;;7.70;3.50;;;;;;;13.75;55.28;99084.59;433703;1267;107812;-40
2022/06/14 20:04:40;;;;;;;10.00;3.80;;;;;;;13.68;55.75;99083.11;433724;1267;99266;-40
2022/06/14 20:14:51;;;;;;;7.50;4.30;;;;;;;13.39;56.19;99089.42;433824;1267;112711;-46
2022/06/14 20:25:09;;;;;;;8.70;4.90;;;;;;;13.04;56.50;99085.20;433665;1267;108701;-41
2022/06/14 20:35:20;;;;;;;14.50;4.60;;;;;;;12.77;57.12;99086.44;433690;1267;99244;-45
2022/06/14 20:45:30;;;;;;;11.00;5.10;;;;;;;12.63;57.92;99090.80;433679;1267;108808;-42
2022/06/14 20:55:39;;;;;;;13.70;5.70;;;;;;;12.40;58.03;99084.77;433648;1267;99257;-41
2022/06/14 21:05:48;;;;;;;13.90;5.10;;;;;;;12.02;58.47;99086.49;433629;1268;112478;-44
2022/06/14 21:15:58;;;;;;;13.70;5.40;;;;;;;11.72;59.00;99093.46;433542;1268;108743;-46
2022/06/14 21:26:02;;;;;;;;;;;;;;;11.36;59.19;99102.66;433254;1267;496325;-42
2022/06/14 21:36:07;;;;;;;11.80;6.10;;;;;;;11.20;59.96;99111.30;433308;1269;108701;-44
2022/06/14 21:46:15;;;;;;;20.30;6.00;;;;;;;11.12;60.20;99114.48;433821;1268;98869;-42
2022/06/14 21:56:26;;;;;;;14.00;6.60;;;;;;;10.91;60.79;99114.66;433923;1267;112418;-45
2022/06/14 22:16:41;;;;;;;13.90;5.80;;;;;;;10.70;61.68;99125.78;433745;1268;99248;-43
2022/06/14 22:26:48;;;;;;;14.70;5.80;;;;;;;10.54;61.89;99126.66;433709;1268;108745;-43
2022/06/14 22:36:52;;;;;;;19.10;7.90;;;;;;;10.53;62.53;99129.84;433810;1268;99263;-41
2022/06/14 22:47:00;;;;;;;14.30;6.70;;;;;;;10.46;62.60;99129.05;433840;1268;113040;-43
2022/06/14 22:57:14;;;;;;;11.10;5.70;;;;;;;10.14;62.91;99124.45;433429;1268;108005;-43
2022/06/14 23:07:21;;;;;;;36.20;5.90;;;;;;;9.83;63.14;99126.06;433492;1266;99254;-41
2022/06/14 23:17:28;;;;;;;20.50;5.30;;;;;;;9.72;63.69;99122.11;433613;1267;108831;-41
2022/06/14 23:27:34;;;;;;;15.20;5.00;;;;;;;9.65;63.96;99119.20;433608;1268;99234;-41
2022/06/14 23:37:42;;;;;;;11.70;4.40;;;;;;;9.61;64.30;99116.52;433867;1268;112372;-42
